sensor_id;sensor_type;location;lat;lon;timestamp;P1;durP1;ratioP1;P2;durP2;ratioP2
2225;SDS011;1119;48.288;8.726;2023-11-22T00:00:44;21.57;;;7.73;;
2225;SDS011;1119;48.288;8.726;2023-11-22T00:03:12;21.50;;;7.90;;
2225;SDS011;1119;48.288;8.726;2023-11-22T00:05:39;21.40;;;7.40;;
2225;SDS011;1119;48.288;8.726;2023-11-22T00:08:06;21.57;;;7.70;;
2225;SDS011;1119;48.288;8.726;2023-11-22T00:10:34;21.63;;;8.47;;
2225;SDS011;1119;48.288;8.726;2023-11-22T00:13:01;21.50;;;7.83;;
2225;SDS011;1119;48.288;8.726;2023-11-22T00:15:29;21.53;;;7.83;;
2225;SDS011;1119;48.288;8.726;2023-11-22T00:17:57;21.53;;;7.60;;
2225;SDS011;1119;48.288;8.726;2023-11-22T00:20:28;21.53;;;7.70;;
2225;SDS011;1119;48.288;8.726;2023-11-22T00:22:56;21.63;;;7.90;;
2225;SDS011;1119;48.288;8.726;2023-11-22T00:25:23;21.60;;;8.50;;
2225;SDS011;1119;48.288;8.726;2023-11-22T00:27:51;21.67;;;8.00;;
2225;SDS011;1119;48.288;8.726;2023-11-22T00:30:18;21.80;;;8.53;;
2225;SDS011;1119;48.288;8.726;2023-11-22T00:32:45;21.50;;;7.63;;
2225;SDS011;1119;48.288;8.726;2023-11-22T00:35:14;21.30;;;6.70;;
2225;SDS011;1119;48.288;8.726;2023-11-22T00:37:43;21.50;;;8.00;;
2225;SDS011;1119;48.288;8.726;2023-11-22T00:40:11;21.40;;;6.87;;
2225;SDS011;1119;48.288;8.726;2023-11-22T00:42:40;21.30;;;6.87;;
2225;SDS011;1119;48.288;8.726;2023-11-22T00:45:08;21.47;;;7.27;;
2225;SDS011;1119;48.288;8.726;2023-11-22T00:47:37;21.63;;;7.80;;
2225;SDS011;1119;48.288;8.726;2023-11-22T00:50:05;21.30;;;6.93;;
2225;SDS011;1119;48.288;8.726;2023-11-22T00:52:34;21.80;;;8.87;;
2225;SDS011;1119;48.288;8.726;2023-11-22T00:55:02;21.70;;;8.80;;
2225;SDS011;1119;48.288;8.726;2023-11-22T00:57:31;21.60;;;8.07;;
2225;SDS011;1119;48.288;8.726;2023-11-22T00:59:58;21.30;;;6.80;;
2225;SDS011;1119;48.288;8.726;2023-11-22T01:02:26;21.70;;;8.57;;
2225;SDS011;1119;48.288;8.726;2023-11-22T01:04:53;21.47;;;7.60;;
2225;SDS011;1119;48.288;8.726;2023-11-22T01:07:21;21.60;;;8.43;;
2225;SDS011;1119;48.288;8.726;2023-11-22T01:09:49;21.70;;;8.27;;
2225;SDS011;1119;48.288;8.726;2023-11-22T01:12:18;21.80;;;8.70;;
2225;SDS011;1119;48.288;8.726;2023-11-22T01:14:47;21.83;;;9.20;;
2225;SDS011;1119;48.288;8.726;2023-11-22T01:17:14;21.97;;;9.87;;
2225;SDS011;1119;48.288;8.726;2023-11-22T01:19:41;21.90;;;9.10;;
2225;SDS011;1119;48.288;8.726;2023-11-22T01:22:08;21.87;;;8.70;;
2225;SDS011;1119;48.288;8.726;2023-11-22T01:24:36;21.70;;;8.73;;
2225;SDS011;1119;48.288;8.726;2023-11-22T01:27:05;21.67;;;8.60;;
2225;SDS011;1119;48.288;8.726;2023-11-22T01:29:32;22.13;;;9.70;;
2225;SDS011;1119;48.288;8.726;2023-11-22T01:32:00;22.10;;;9.97;;
2225;SDS011;1119;48.288;8.726;2023-11-22T01:34:27;22.30;;;10.50;;
2225;SDS011;1119;48.288;8.726;2023-11-22T01:36:55;22.00;;;9.80;;
2225;SDS011;1119;48.288;8.726;2023-11-22T01:39:23;21.80;;;8.87;;
2225;SDS011;1119;48.288;8.726;2023-11-22T01:41:51;21.60;;;8.50;;
2225;SDS011;1119;48.288;8.726;2023-11-22T01:44:21;21.80;;;8.70;;
2225;SDS011;1119;48.288;8.726;2023-11-22T01:46:49;21.77;;;8.73;;
2225;SDS011;1119;48.288;8.726;2023-11-22T01:49:17;21.93;;;9.40;;
2225;SDS011;1119;48.288;8.726;2023-11-22T01:51:44;21.93;;;9.13;;
2225;SDS011;1119;48.288;8.726;2023-11-22T01:54:12;21.90;;;9.13;;
2225;SDS011;1119;48.288;8.726;2023-11-22T01:56:40;22.17;;;10.00;;
2225;SDS011;1119;48.288;8.726;2023-11-22T01:59:07;22.10;;;10.17;;
2225;SDS011;1119;48.288;8.726;2023-11-22T02:01:36;22.17;;;10.20;;
2225;SDS011;1119;48.288;8.726;2023-11-22T02:04:05;22.20;;;10.10;;
2225;SDS011;1119;48.288;8.726;2023-11-22T02:06:32;22.40;;;11.60;;
2225;SDS011;1119;48.288;8.726;2023-11-22T02:09:01;21.97;;;9.47;;
2225;SDS011;1119;48.288;8.726;2023-11-22T02:11:28;22.07;;;9.40;;
2225;SDS011;1119;48.288;8.726;2023-11-22T02:13:55;22.50;;;10.97;;
2225;SDS011;1119;48.288;8.726;2023-11-22T02:16:23;22.20;;;9.70;;
2225;SDS011;1119;48.288;8.726;2023-11-22T02:18:51;22.30;;;10.10;;
2225;SDS011;1119;48.288;8.726;2023-11-22T02:21:19;22.47;;;10.27;;
2225;SDS011;1119;48.288;8.726;2023-11-22T02:23:48;22.40;;;9.93;;
2225;SDS011;1119;48.288;8.726;2023-11-22T02:26:15;22.60;;;10.87;;
2225;SDS011;1119;48.288;8.726;2023-11-22T02:28:43;22.67;;;11.17;;
2225;SDS011;1119;48.288;8.726;2023-11-22T02:31:11;22.70;;;11.77;;
2225;SDS011;1119;48.288;8.726;2023-11-22T02:33:38;22.50;;;10.67;;
2225;SDS011;1119;48.288;8.726;2023-11-22T02:36:07;22.87;;;11.33;;
2225;SDS011;1119;48.288;8.726;2023-11-22T02:38:37;22.73;;;11.50;;
2225;SDS011;1119;48.288;8.726;2023-11-22T02:41:07;22.83;;;11.57;;
2225;SDS011;1119;48.288;8.726;2023-11-22T02:43:35;22.93;;;12.30;;
2225;SDS011;1119;48.288;8.726;2023-11-22T02:46:02;22.80;;;11.57;;
2225;SDS011;1119;48.288;8.726;2023-11-22T02:48:30;22.90;;;12.07;;
2225;SDS011;1119;48.288;8.726;2023-11-22T02:50:59;22.90;;;12.23;;
2225;SDS011;1119;48.288;8.726;2023-11-22T02:53:26;23.00;;;12.13;;
2225;SDS011;1119;48.288;8.726;2023-11-22T02:55:55;22.93;;;12.30;;
2225;SDS011;1119;48.288;8.726;2023-11-22T02:58:27;23.27;;;13.30;;
2225;SDS011;1119;48.288;8.726;2023-11-22T03:00:55;23.67;;;14.70;;
2225;SDS011;1119;48.288;8.726;2023-11-22T03:03:23;23.92;;;15.73;;
2225;SDS011;1119;48.288;8.726;2023-11-22T03:05:51;24.20;;;16.77;;
2225;SDS011;1119;48.288;8.726;2023-11-22T03:08:18;23.80;;;15.63;;
2225;SDS011;1119;48.288;8.726;2023-11-22T03:10:45;23.20;;;13.47;;
2225;SDS011;1119;48.288;8.726;2023-11-22T03:13:12;23.05;;;12.38;;
2225;SDS011;1119;48.288;8.726;2023-11-22T03:15:41;23.40;;;13.63;;
2225;SDS011;1119;48.288;8.726;2023-11-22T03:18:09;23.10;;;12.50;;
2225;SDS011;1119;48.288;8.726;2023-11-22T03:20:36;23.55;;;14.18;;
2225;SDS011;1119;48.288;8.726;2023-11-22T03:23:04;23.35;;;12.93;;
2225;SDS011;1119;48.288;8.726;2023-11-22T03:25:31;22.65;;;10.27;;
2225;SDS011;1119;48.288;8.726;2023-11-22T03:27:59;22.45;;;9.93;;
2225;SDS011;1119;48.288;8.726;2023-11-22T03:30:26;22.33;;;9.90;;
2225;SDS011;1119;48.288;8.726;2023-11-22T03:32:55;22.92;;;11.27;;
2225;SDS011;1119;48.288;8.726;2023-11-22T03:35:22;22.70;;;11.67;;
2225;SDS011;1119;48.288;8.726;2023-11-22T03:37:49;22.85;;;11.13;;
2225;SDS011;1119;48.288;8.726;2023-11-22T03:40:17;22.63;;;10.88;;
2225;SDS011;1119;48.288;8.726;2023-11-22T03:42:45;22.63;;;10.85;;
2225;SDS011;1119;48.288;8.726;2023-11-22T03:45:13;22.70;;;10.77;;
2225;SDS011;1119;48.288;8.726;2023-11-22T03:47:41;22.75;;;10.52;;
2225;SDS011;1119;48.288;8.726;2023-11-22T03:50:10;22.35;;;9.25;;
2225;SDS011;1119;48.288;8.726;2023-11-22T03:52:37;22.45;;;10.05;;
2225;SDS011;1119;48.288;8.726;2023-11-22T03:55:04;22.55;;;10.55;;
2225;SDS011;1119;48.288;8.726;2023-11-22T03:57:33;22.73;;;10.82;;
2225;SDS011;1119;48.288;8.726;2023-11-22T04:00:00;22.52;;;9.95;;
2225;SDS011;1119;48.288;8.726;2023-11-22T04:02:38;22.85;;;11.10;;
2225;SDS011;1119;48.288;8.726;2023-11-22T04:05:07;22.75;;;10.65;;
2225;SDS011;1119;48.288;8.726;2023-11-22T04:07:36;22.55;;;10.07;;
2225;SDS011;1119;48.288;8.726;2023-11-22T04:10:04;22.87;;;11.30;;
2225;SDS011;1119;48.288;8.726;2023-11-22T04:12:33;22.75;;;10.52;;
2225;SDS011;1119;48.288;8.726;2023-11-22T04:15:04;22.90;;;10.87;;
2225;SDS011;1119;48.288;8.726;2023-11-22T04:17:34;22.85;;;10.63;;
2225;SDS011;1119;48.288;8.726;2023-11-22T04:20:02;23.10;;;11.43;;
2225;SDS011;1119;48.288;8.726;2023-11-22T04:22:35;22.65;;;9.57;;
2225;SDS011;1119;48.288;8.726;2023-11-22T04:25:03;23.05;;;11.20;;
2225;SDS011;1119;48.288;8.726;2023-11-22T04:27:32;22.95;;;11.30;;
2225;SDS011;1119;48.288;8.726;2023-11-22T04:29:59;22.83;;;10.55;;
2225;SDS011;1119;48.288;8.726;2023-11-22T04:32:27;23.10;;;11.55;;
2225;SDS011;1119;48.288;8.726;2023-11-22T04:34:55;22.95;;;10.77;;
2225;SDS011;1119;48.288;8.726;2023-11-22T04:37:24;22.75;;;10.63;;
2225;SDS011;1119;48.288;8.726;2023-11-22T04:39:53;22.45;;;9.10;;
2225;SDS011;1119;48.288;8.726;2023-11-22T04:42:21;22.40;;;9.48;;
2225;SDS011;1119;48.288;8.726;2023-11-22T04:44:48;22.45;;;9.05;;
2225;SDS011;1119;48.288;8.726;2023-11-22T04:47:16;23.00;;;11.25;;
2225;SDS011;1119;48.288;8.726;2023-11-22T04:49:43;22.85;;;10.73;;
2225;SDS011;1119;48.288;8.726;2023-11-22T04:52:11;22.95;;;11.65;;
2225;SDS011;1119;48.288;8.726;2023-11-22T04:54:38;23.25;;;12.38;;
2225;SDS011;1119;48.288;8.726;2023-11-22T04:57:07;22.95;;;11.77;;
2225;SDS011;1119;48.288;8.726;2023-11-22T04:59:35;23.15;;;12.25;;
2225;SDS011;1119;48.288;8.726;2023-11-22T05:02:03;23.17;;;12.50;;
2225;SDS011;1119;48.288;8.726;2023-11-22T05:04:32;23.50;;;14.02;;
2225;SDS011;1119;48.288;8.726;2023-11-22T05:06:59;23.75;;;14.75;;
2225;SDS011;1119;48.288;8.726;2023-11-22T05:09:27;23.95;;;15.18;;
2225;SDS011;1119;48.288;8.726;2023-11-22T05:11:54;24.25;;;16.33;;
2225;SDS011;1119;48.288;8.726;2023-11-22T05:14:22;23.67;;;15.02;;
2225;SDS011;1119;48.288;8.726;2023-11-22T05:16:50;24.58;;;17.58;;
2225;SDS011;1119;48.288;8.726;2023-11-22T05:19:17;23.60;;;13.77;;
2225;SDS011;1119;48.288;8.726;2023-11-22T05:21:45;23.55;;;13.93;;
2225;SDS011;1119;48.288;8.726;2023-11-22T05:24:13;23.90;;;14.98;;
2225;SDS011;1119;48.288;8.726;2023-11-22T05:26:41;23.55;;;14.45;;
2225;SDS011;1119;48.288;8.726;2023-11-22T05:29:08;23.85;;;15.38;;
2225;SDS011;1119;48.288;8.726;2023-11-22T05:31:37;23.45;;;13.90;;
2225;SDS011;1119;48.288;8.726;2023-11-22T05:34:04;23.15;;;12.18;;
2225;SDS011;1119;48.288;8.726;2023-11-22T05:36:32;23.35;;;13.73;;
2225;SDS011;1119;48.288;8.726;2023-11-22T05:38:59;23.42;;;13.18;;
2225;SDS011;1119;48.288;8.726;2023-11-22T05:41:29;23.75;;;14.70;;
2225;SDS011;1119;48.288;8.726;2023-11-22T05:43:56;23.45;;;13.63;;
2225;SDS011;1119;48.288;8.726;2023-11-22T05:46:24;23.73;;;14.63;;
2225;SDS011;1119;48.288;8.726;2023-11-22T05:48:53;23.45;;;13.75;;
2225;SDS011;1119;48.288;8.726;2023-11-22T05:51:20;23.65;;;14.38;;
2225;SDS011;1119;48.288;8.726;2023-11-22T05:53:48;23.20;;;12.85;;
2225;SDS011;1119;48.288;8.726;2023-11-22T05:56:15;23.05;;;12.15;;
2225;SDS011;1119;48.288;8.726;2023-11-22T05:58:42;22.95;;;11.73;;
2225;SDS011;1119;48.288;8.726;2023-11-22T06:01:10;23.42;;;13.18;;
2225;SDS011;1119;48.288;8.726;2023-11-22T06:03:37;22.65;;;10.85;;
2225;SDS011;1119;48.288;8.726;2023-11-22T06:06:07;22.75;;;11.30;;
2225;SDS011;1119;48.288;8.726;2023-11-22T06:08:34;23.30;;;13.00;;
2225;SDS011;1119;48.288;8.726;2023-11-22T06:11:03;22.85;;;11.48;;
2225;SDS011;1119;48.288;8.726;2023-11-22T06:13:30;22.63;;;10.32;;
2225;SDS011;1119;48.288;8.726;2023-11-22T06:15:58;22.90;;;11.95;;
2225;SDS011;1119;48.288;8.726;2023-11-22T06:18:25;23.10;;;12.07;;
2225;SDS011;1119;48.288;8.726;2023-11-22T06:20:55;23.05;;;12.07;;
2225;SDS011;1119;48.288;8.726;2023-11-22T06:23:24;22.77;;;11.63;;
2225;SDS011;1119;48.288;8.726;2023-11-22T06:25:51;22.80;;;11.40;;
2225;SDS011;1119;48.288;8.726;2023-11-22T06:28:19;22.85;;;11.32;;
2225;SDS011;1119;48.288;8.726;2023-11-22T06:30:47;22.80;;;11.15;;
2225;SDS011;1119;48.288;8.726;2023-11-22T06:33:15;22.65;;;10.50;;
2225;SDS011;1119;48.288;8.726;2023-11-22T06:35:42;22.75;;;11.20;;
2225;SDS011;1119;48.288;8.726;2023-11-22T06:38:10;22.85;;;11.23;;
2225;SDS011;1119;48.288;8.726;2023-11-22T06:40:38;23.15;;;12.25;;
2225;SDS011;1119;48.288;8.726;2023-11-22T06:43:06;22.63;;;10.73;;
2225;SDS011;1119;48.288;8.726;2023-11-22T06:45:33;23.17;;;12.55;;
2225;SDS011;1119;48.288;8.726;2023-11-22T06:48:01;23.15;;;12.52;;
2225;SDS011;1119;48.288;8.726;2023-11-22T06:50:28;22.80;;;11.63;;
2225;SDS011;1119;48.288;8.726;2023-11-22T06:52:56;23.00;;;12.30;;
2225;SDS011;1119;48.288;8.726;2023-11-22T06:55:23;23.10;;;12.52;;
2225;SDS011;1119;48.288;8.726;2023-11-22T06:57:53;22.83;;;11.50;;
2225;SDS011;1119;48.288;8.726;2023-11-22T07:00:21;23.52;;;14.35;;
2225;SDS011;1119;48.288;8.726;2023-11-22T07:02:48;23.75;;;15.25;;
2225;SDS011;1119;48.288;8.726;2023-11-22T07:05:16;23.65;;;15.05;;
2225;SDS011;1119;48.288;8.726;2023-11-22T07:07:44;23.42;;;13.77;;
2225;SDS011;1119;48.288;8.726;2023-11-22T07:10:12;24.00;;;16.02;;
2225;SDS011;1119;48.288;8.726;2023-11-22T07:12:40;24.02;;;15.88;;
2225;SDS011;1119;48.288;8.726;2023-11-22T07:15:10;24.23;;;16.77;;
2225;SDS011;1119;48.288;8.726;2023-11-22T07:17:37;23.98;;;15.90;;
2225;SDS011;1119;48.288;8.726;2023-11-22T07:20:05;23.95;;;16.00;;
2225;SDS011;1119;48.288;8.726;2023-11-22T07:22:38;24.08;;;16.30;;
2225;SDS011;1119;48.288;8.726;2023-11-22T07:25:08;24.25;;;16.80;;
2225;SDS011;1119;48.288;8.726;2023-11-22T07:27:43;23.95;;;15.73;;
2225;SDS011;1119;48.288;8.726;2023-11-22T07:30:13;24.15;;;16.80;;
2225;SDS011;1119;48.288;8.726;2023-11-22T07:32:41;23.75;;;15.40;;
2225;SDS011;1119;48.288;8.726;2023-11-22T07:35:09;24.05;;;15.88;;
2225;SDS011;1119;48.288;8.726;2023-11-22T07:37:37;24.25;;;17.48;;
2225;SDS011;1119;48.288;8.726;2023-11-22T07:40:06;24.23;;;17.05;;
2225;SDS011;1119;48.288;8.726;2023-11-22T07:42:35;22.98;;;12.32;;
2225;SDS011;1119;48.288;8.726;2023-11-22T07:45:02;23.55;;;13.95;;
2225;SDS011;1119;48.288;8.726;2023-11-22T07:47:32;23.05;;;12.40;;
2225;SDS011;1119;48.288;8.726;2023-11-22T07:49:59;23.05;;;12.45;;
2225;SDS011;1119;48.288;8.726;2023-11-22T07:52:28;23.20;;;12.65;;
2225;SDS011;1119;48.288;8.726;2023-11-22T07:54:55;23.23;;;13.13;;
2225;SDS011;1119;48.288;8.726;2023-11-22T07:57:23;23.35;;;13.30;;
2225;SDS011;1119;48.288;8.726;2023-11-22T07:59:50;23.00;;;12.57;;
2225;SDS011;1119;48.288;8.726;2023-11-22T08:02:20;23.05;;;11.93;;
2225;SDS011;1119;48.288;8.726;2023-11-22T08:04:49;23.20;;;12.60;;
2225;SDS011;1119;48.288;8.726;2023-11-22T08:07:18;22.77;;;11.68;;
2225;SDS011;1119;48.288;8.726;2023-11-22T08:09:46;22.95;;;11.90;;
2225;SDS011;1119;48.288;8.726;2023-11-22T08:12:14;23.35;;;13.30;;
2225;SDS011;1119;48.288;8.726;2023-11-22T08:14:41;22.75;;;11.40;;
2225;SDS011;1119;48.288;8.726;2023-11-22T08:17:09;22.85;;;11.45;;
2225;SDS011;1119;48.288;8.726;2023-11-22T08:19:39;23.25;;;12.80;;
2225;SDS011;1119;48.288;8.726;2023-11-22T08:22:08;22.88;;;12.10;;
2225;SDS011;1119;48.288;8.726;2023-11-22T08:24:35;22.38;;;9.73;;
2225;SDS011;1119;48.288;8.726;2023-11-22T08:27:03;22.30;;;9.15;;
2225;SDS011;1119;48.288;8.726;2023-11-22T08:29:32;22.52;;;10.48;;
2225;SDS011;1119;48.288;8.726;2023-11-22T08:31:59;22.20;;;9.02;;
2225;SDS011;1119;48.288;8.726;2023-11-22T08:34:27;22.25;;;9.15;;
2225;SDS011;1119;48.288;8.726;2023-11-22T08:36:54;22.40;;;10.07;;
2225;SDS011;1119;48.288;8.726;2023-11-22T08:39:25;22.50;;;10.15;;
2225;SDS011;1119;48.288;8.726;2023-11-22T08:41:55;22.45;;;9.93;;
2225;SDS011;1119;48.288;8.726;2023-11-22T08:44:23;22.65;;;10.50;;
2225;SDS011;1119;48.288;8.726;2023-11-22T08:46:51;22.52;;;10.35;;
2225;SDS011;1119;48.288;8.726;2023-11-22T08:49:18;22.83;;;11.13;;
2225;SDS011;1119;48.288;8.726;2023-11-22T08:51:45;22.75;;;11.02;;
2225;SDS011;1119;48.288;8.726;2023-11-22T08:54:13;22.48;;;10.30;;
2225;SDS011;1119;48.288;8.726;2023-11-22T08:56:43;22.65;;;10.88;;
2225;SDS011;1119;48.288;8.726;2023-11-22T08:59:12;22.70;;;10.75;;
2225;SDS011;1119;48.288;8.726;2023-11-22T09:01:39;22.33;;;9.27;;
2225;SDS011;1119;48.288;8.726;2023-11-22T09:04:07;22.15;;;9.38;;
2225;SDS011;1119;48.288;8.726;2023-11-22T09:06:35;21.95;;;8.32;;
2225;SDS011;1119;48.288;8.726;2023-11-22T09:09:02;22.30;;;9.68;;
2225;SDS011;1119;48.288;8.726;2023-11-22T09:11:33;22.25;;;9.55;;
2225;SDS011;1119;48.288;8.726;2023-11-22T09:14:01;22.23;;;9.25;;
2225;SDS011;1119;48.288;8.726;2023-11-22T09:16:34;22.15;;;8.73;;
2225;SDS011;1119;48.288;8.726;2023-11-22T09:19:02;21.65;;;7.35;;
2225;SDS011;1119;48.288;8.726;2023-11-22T09:21:31;22.00;;;8.65;;
2225;SDS011;1119;48.288;8.726;2023-11-22T09:23:59;22.15;;;9.40;;
2225;SDS011;1119;48.288;8.726;2023-11-22T09:26:26;22.15;;;8.82;;
2225;SDS011;1119;48.288;8.726;2023-11-22T09:28:54;22.30;;;9.48;;
2225;SDS011;1119;48.288;8.726;2023-11-22T09:31:24;22.10;;;8.23;;
2225;SDS011;1119;48.288;8.726;2023-11-22T09:33:51;22.00;;;8.75;;
2225;SDS011;1119;48.288;8.726;2023-11-22T09:36:18;21.95;;;7.75;;
2225;SDS011;1119;48.288;8.726;2023-11-22T09:38:50;21.83;;;7.57;;
2225;SDS011;1119;48.288;8.726;2023-11-22T09:41:17;21.65;;;7.30;;
2225;SDS011;1119;48.288;8.726;2023-11-22T09:43:44;21.73;;;7.43;;
2225;SDS011;1119;48.288;8.726;2023-11-22T09:46:15;21.35;;;5.40;;
2225;SDS011;1119;48.288;8.726;2023-11-22T09:48:47;21.67;;;6.35;;
2225;SDS011;1119;48.288;8.726;2023-11-22T09:51:19;21.55;;;6.40;;
2225;SDS011;1119;48.288;8.726;2023-11-22T09:53:52;21.25;;;4.90;;
2225;SDS011;1119;48.288;8.726;2023-11-22T09:56:24;21.20;;;5.47;;
2225;SDS011;1119;48.288;8.726;2023-11-22T09:58:52;21.45;;;5.93;;
2225;SDS011;1119;48.288;8.726;2023-11-22T10:01:21;21.45;;;6.13;;
2225;SDS011;1119;48.288;8.726;2023-11-22T10:03:50;21.35;;;5.15;;
2225;SDS011;1119;48.288;8.726;2023-11-22T10:06:18;21.52;;;6.38;;
2225;SDS011;1119;48.288;8.726;2023-11-22T10:08:45;21.15;;;4.85;;
2225;SDS011;1119;48.288;8.726;2023-11-22T10:11:14;21.27;;;4.55;;
2225;SDS011;1119;48.288;8.726;2023-11-22T10:13:43;21.35;;;5.25;;
2225;SDS011;1119;48.288;8.726;2023-11-22T10:16:14;21.15;;;4.45;;
2225;SDS011;1119;48.288;8.726;2023-11-22T10:18:42;21.45;;;5.57;;
2225;SDS011;1119;48.288;8.726;2023-11-22T10:21:23;21.30;;;5.25;;
2225;SDS011;1119;48.288;8.726;2023-11-22T10:23:52;21.27;;;4.47;;
2225;SDS011;1119;48.288;8.726;2023-11-22T10:26:21;21.15;;;4.45;;
2225;SDS011;1119;48.288;8.726;2023-11-22T10:28:50;20.95;;;4.00;;
2225;SDS011;1119;48.288;8.726;2023-11-22T10:31:18;20.92;;;3.95;;
2225;SDS011;1119;48.288;8.726;2023-11-22T10:33:47;21.05;;;4.20;;
2225;SDS011;1119;48.288;8.726;2023-11-22T10:36:14;21.05;;;3.85;;
2225;SDS011;1119;48.288;8.726;2023-11-22T10:38:48;20.90;;;3.50;;
2225;SDS011;1119;48.288;8.726;2023-11-22T10:41:16;21.00;;;3.70;;
2225;SDS011;1119;48.288;8.726;2023-11-22T10:43:46;21.00;;;4.00;;
2225;SDS011;1119;48.288;8.726;2023-11-22T10:46:14;20.73;;;3.38;;
2225;SDS011;1119;48.288;8.726;2023-11-22T10:48:42;20.75;;;2.92;;
2225;SDS011;1119;48.288;8.726;2023-11-22T10:51:11;20.83;;;3.20;;
2225;SDS011;1119;48.288;8.726;2023-11-22T10:53:43;20.73;;;2.90;;
2225;SDS011;1119;48.288;8.726;2023-11-22T10:56:15;20.73;;;3.20;;
2225;SDS011;1119;48.288;8.726;2023-11-22T10:58:46;20.83;;;3.20;;
2225;SDS011;1119;48.288;8.726;2023-11-22T11:01:16;20.80;;;3.28;;
2225;SDS011;1119;48.288;8.726;2023-11-22T11:03:50;20.75;;;3.05;;
2225;SDS011;1119;48.288;8.726;2023-11-22T11:06:24;20.85;;;3.50;;
2225;SDS011;1119;48.288;8.726;2023-11-22T11:09:00;20.77;;;3.10;;
2225;SDS011;1119;48.288;8.726;2023-11-22T11:11:31;20.60;;;3.00;;
2225;SDS011;1119;48.288;8.726;2023-11-22T11:14:01;20.65;;;3.20;;
2225;SDS011;1119;48.288;8.726;2023-11-22T11:16:31;20.90;;;3.50;;
2225;SDS011;1119;48.288;8.726;2023-11-22T11:19:03;20.83;;;3.42;;
2225;SDS011;1119;48.288;8.726;2023-11-22T11:21:33;20.83;;;3.35;;
2225;SDS011;1119;48.288;8.726;2023-11-22T11:24:02;20.77;;;3.10;;
2225;SDS011;1119;48.288;8.726;2023-11-22T11:26:31;20.73;;;3.03;;
2225;SDS011;1119;48.288;8.726;2023-11-22T11:29:01;20.65;;;2.78;;
2225;SDS011;1119;48.288;8.726;2023-11-22T11:31:31;20.85;;;3.40;;
2225;SDS011;1119;48.288;8.726;2023-11-22T11:34:00;20.83;;;3.67;;
2225;SDS011;1119;48.288;8.726;2023-11-22T11:36:28;21.10;;;4.50;;
2225;SDS011;1119;48.288;8.726;2023-11-22T11:38:58;21.02;;;4.30;;
2225;SDS011;1119;48.288;8.726;2023-11-22T11:41:30;20.85;;;4.05;;
2225;SDS011;1119;48.288;8.726;2023-11-22T11:44:01;20.95;;;4.03;;
2225;SDS011;1119;48.288;8.726;2023-11-22T11:46:30;20.95;;;4.50;;
2225;SDS011;1119;48.288;8.726;2023-11-22T11:48:58;21.15;;;4.70;;
2225;SDS011;1119;48.288;8.726;2023-11-22T11:51:26;21.30;;;5.07;;
2225;SDS011;1119;48.288;8.726;2023-11-22T11:53:55;20.95;;;4.63;;
2225;SDS011;1119;48.288;8.726;2023-11-22T11:56:24;20.80;;;3.35;;
2225;SDS011;1119;48.288;8.726;2023-11-22T11:58:56;20.77;;;3.55;;
2225;SDS011;1119;48.288;8.726;2023-11-22T12:01:27;20.80;;;3.10;;
2225;SDS011;1119;48.288;8.726;2023-11-22T12:03:57;20.52;;;2.85;;
2225;SDS011;1119;48.288;8.726;2023-11-22T12:06:28;20.75;;;3.30;;
2225;SDS011;1119;48.288;8.726;2023-11-22T12:08:56;20.83;;;3.65;;
2225;SDS011;1119;48.288;8.726;2023-11-22T12:11:25;20.95;;;4.38;;
2225;SDS011;1119;48.288;8.726;2023-11-22T12:13:52;20.80;;;3.50;;
2225;SDS011;1119;48.288;8.726;2023-11-22T12:16:22;21.02;;;4.40;;
2225;SDS011;1119;48.288;8.726;2023-11-22T12:18:49;20.77;;;3.88;;
2225;SDS011;1119;48.288;8.726;2023-11-22T12:21:17;20.85;;;4.05;;
2225;SDS011;1119;48.288;8.726;2023-11-22T12:23:47;21.00;;;4.25;;
2225;SDS011;1119;48.288;8.726;2023-11-22T12:26:15;20.98;;;3.92;;
2225;SDS011;1119;48.288;8.726;2023-11-22T12:28:46;20.85;;;3.90;;
2225;SDS011;1119;48.288;8.726;2023-11-22T12:31:16;20.80;;;3.72;;
2225;SDS011;1119;48.288;8.726;2023-11-22T12:33:43;20.85;;;3.40;;
2225;SDS011;1119;48.288;8.726;2023-11-22T12:36:13;20.67;;;2.97;;
2225;SDS011;1119;48.288;8.726;2023-11-22T12:38:42;20.80;;;3.40;;
2225;SDS011;1119;48.288;8.726;2023-11-22T12:41:09;20.65;;;3.13;;
2225;SDS011;1119;48.288;8.726;2023-11-22T12:43:37;20.58;;;2.92;;
2225;SDS011;1119;48.288;8.726;2023-11-22T12:46:07;20.75;;;2.92;;
2225;SDS011;1119;48.288;8.726;2023-11-22T12:48:38;20.83;;;2.97;;
2225;SDS011;1119;48.288;8.726;2023-11-22T12:51:14;20.67;;;3.08;;
2225;SDS011;1119;48.288;8.726;2023-11-22T12:53:41;20.63;;;2.95;;
2225;SDS011;1119;48.288;8.726;2023-11-22T12:56:09;20.73;;;3.22;;
2225;SDS011;1119;48.288;8.726;2023-11-22T12:58:37;20.70;;;3.17;;
2225;SDS011;1119;48.288;8.726;2023-11-22T13:01:04;20.73;;;3.13;;
2225;SDS011;1119;48.288;8.726;2023-11-22T13:03:33;20.85;;;3.75;;
2225;SDS011;1119;48.288;8.726;2023-11-22T13:06:00;20.88;;;3.53;;
2225;SDS011;1119;48.288;8.726;2023-11-22T13:08:28;20.83;;;3.30;;
2225;SDS011;1119;48.288;8.726;2023-11-22T13:10:56;20.77;;;3.05;;
2225;SDS011;1119;48.288;8.726;2023-11-22T13:13:24;20.65;;;3.08;;
2225;SDS011;1119;48.288;8.726;2023-11-22T13:15:53;20.65;;;2.80;;
2225;SDS011;1119;48.288;8.726;2023-11-22T13:18:20;20.60;;;2.55;;
2225;SDS011;1119;48.288;8.726;2023-11-22T13:20:49;20.70;;;3.00;;
2225;SDS011;1119;48.288;8.726;2023-11-22T13:23:16;20.75;;;3.03;;
2225;SDS011;1119;48.288;8.726;2023-11-22T13:25:44;20.65;;;3.10;;
2225;SDS011;1119;48.288;8.726;2023-11-22T13:28:12;20.63;;;3.03;;
2225;SDS011;1119;48.288;8.726;2023-11-22T13:30:39;20.60;;;2.65;;
2225;SDS011;1119;48.288;8.726;2023-11-22T13:33:06;20.63;;;2.67;;
2225;SDS011;1119;48.288;8.726;2023-11-22T13:35:34;20.70;;;2.70;;
2225;SDS011;1119;48.288;8.726;2023-11-22T13:38:04;20.65;;;2.63;;
2225;SDS011;1119;48.288;8.726;2023-11-22T13:40:36;20.70;;;2.88;;
2225;SDS011;1119;48.288;8.726;2023-11-22T13:43:05;20.83;;;3.28;;
2225;SDS011;1119;48.288;8.726;2023-11-22T13:45:34;20.73;;;2.60;;
2225;SDS011;1119;48.288;8.726;2023-11-22T13:48:03;20.85;;;3.38;;
2225;SDS011;1119;48.288;8.726;2023-11-22T13:50:32;20.77;;;3.45;;
2225;SDS011;1119;48.288;8.726;2023-11-22T13:52:59;20.88;;;3.30;;
2225;SDS011;1119;48.288;8.726;2023-11-22T13:55:28;20.58;;;2.67;;
2225;SDS011;1119;48.288;8.726;2023-11-22T13:57:57;20.80;;;2.97;;
2225;SDS011;1119;48.288;8.726;2023-11-22T14:00:29;20.67;;;2.70;;
2225;SDS011;1119;48.288;8.726;2023-11-22T14:03:00;20.60;;;2.50;;
2225;SDS011;1119;48.288;8.726;2023-11-22T14:05:31;20.63;;;2.70;;
2225;SDS011;1119;48.288;8.726;2023-11-22T14:08:03;20.70;;;3.00;;
2225;SDS011;1119;48.288;8.726;2023-11-22T14:10:33;20.52;;;2.58;;
2225;SDS011;1119;48.288;8.726;2023-11-22T14:13:00;20.63;;;2.47;;
2225;SDS011;1119;48.288;8.726;2023-11-22T14:15:28;20.60;;;2.38;;
2225;SDS011;1119;48.288;8.726;2023-11-22T14:17:57;20.55;;;2.70;;
2225;SDS011;1119;48.288;8.726;2023-11-22T14:20:27;20.67;;;2.80;;
2225;SDS011;1119;48.288;8.726;2023-11-22T14:22:55;20.60;;;2.58;;
2225;SDS011;1119;48.288;8.726;2023-11-22T14:25:23;20.60;;;2.63;;
2225;SDS011;1119;48.288;8.726;2023-11-22T14:31:02;20.70;;;2.83;;
2225;SDS011;1119;48.288;8.726;2023-11-22T14:33:29;20.60;;;2.70;;
2225;SDS011;1119;48.288;8.726;2023-11-22T14:35:57;20.75;;;2.78;;
2225;SDS011;1119;48.288;8.726;2023-11-22T14:38:25;20.67;;;2.35;;
2225;SDS011;1119;48.288;8.726;2023-11-22T14:40:52;20.63;;;2.80;;
2225;SDS011;1119;48.288;8.726;2023-11-22T14:43:19;20.77;;;2.80;;
2225;SDS011;1119;48.288;8.726;2023-11-22T14:45:47;20.75;;;3.10;;
2225;SDS011;1119;48.288;8.726;2023-11-22T14:48:15;20.80;;;2.67;;
2225;SDS011;1119;48.288;8.726;2023-11-22T14:50:44;20.80;;;2.67;;
2225;SDS011;1119;48.288;8.726;2023-11-22T14:53:11;20.65;;;2.60;;
2225;SDS011;1119;48.288;8.726;2023-11-22T14:55:39;20.70;;;2.60;;
2225;SDS011;1119;48.288;8.726;2023-11-22T14:58:07;20.65;;;2.38;;
2225;SDS011;1119;48.288;8.726;2023-11-22T15:00:35;20.58;;;2.30;;
2225;SDS011;1119;48.288;8.726;2023-11-22T15:03:03;20.65;;;2.17;;
2225;SDS011;1119;48.288;8.726;2023-11-22T15:05:31;20.73;;;2.55;;